createdAt,value
2018-09-29T00:01:40.054Z,3.93
2018-09-29T00:04:08.656Z,3.63
2018-09-29T00:06:37.319Z,4.30
2018-09-29T00:09:08.510Z,3.63
2018-09-29T00:11:37.042Z,4.00
2018-09-29T00:14:05.708Z,3.97
2018-09-29T00:16:34.421Z,3.93
2018-09-29T00:19:03.125Z,4.50
2018-09-29T00:21:31.678Z,3.70
2018-09-29T00:24:00.737Z,4.43
2018-09-29T00:26:29.315Z,4.23
2018-09-29T00:28:57.915Z,4.20
2018-09-29T00:31:26.834Z,4.20
2018-09-29T00:33:56.202Z,4.43
2018-09-29T00:36:24.921Z,3.67
2018-09-29T00:38:53.560Z,4.47
2018-09-29T00:41:22.206Z,4.20
2018-09-29T00:43:50.866Z,4.20
2018-09-29T00:46:19.857Z,4.63
2018-09-29T00:48:49.081Z,4.13
2018-09-29T00:51:17.660Z,4.47
2018-09-29T00:53:46.486Z,4.37
2018-09-29T00:56:15.175Z,4.03
2018-09-29T00:58:44.346Z,3.87
2018-09-29T01:01:12.917Z,3.80
2018-09-29T01:03:41.521Z,3.70
2018-09-29T01:06:10.093Z,3.87
2018-09-29T01:08:38.698Z,4.17
2018-09-29T01:11:07.489Z,4.10
2018-09-29T01:13:36.646Z,4.23
2018-09-29T01:16:05.565Z,4.13
2018-09-29T01:18:34.196Z,4.57
2018-09-29T01:21:05.789Z,3.93
2018-09-29T01:23:34.903Z,3.73
2018-09-29T01:26:04.146Z,3.73
2018-09-29T01:28:32.698Z,4.07
2018-09-29T01:31:01.410Z,4.00
2018-09-29T01:33:30.633Z,3.70
2018-09-29T01:35:59.181Z,3.40
2018-09-29T01:41:02.866Z,4.10
2018-09-29T01:43:31.482Z,3.87
2018-09-29T01:46:00.009Z,3.40
2018-09-29T01:48:30.649Z,3.80
2018-09-29T01:50:59.393Z,3.80
2018-09-29T01:53:28.138Z,3.77
2018-09-29T01:55:57.450Z,4.23
2018-09-29T01:58:26.023Z,3.80
2018-09-29T02:00:54.730Z,3.90
2018-09-29T02:03:23.422Z,4.03
2018-09-29T02:05:52.014Z,3.73
2018-09-29T02:08:20.725Z,3.77
2018-09-29T02:10:49.621Z,3.57
2018-09-29T02:13:18.957Z,4.00
2018-09-29T02:15:47.592Z,3.30
2018-09-29T02:18:16.107Z,4.00
2018-09-29T02:20:45.242Z,3.73
2018-09-29T02:23:13.838Z,3.83
2018-09-29T02:25:42.436Z,3.33
2018-09-29T02:28:11.047Z,3.33
2018-09-29T02:30:39.851Z,3.43
2018-09-29T02:33:08.689Z,3.20
2018-09-29T02:35:37.754Z,3.00
2018-09-29T02:38:06.621Z,3.20
2018-09-29T02:40:35.168Z,3.20
2018-09-29T02:43:03.790Z,3.43
2018-09-29T02:45:32.529Z,3.30
2018-09-29T02:48:01.166Z,3.47
2018-09-29T02:50:30.263Z,3.00
2018-09-29T02:52:58.856Z,3.00
2018-09-29T02:55:27.598Z,3.60
2018-09-29T02:57:56.301Z,3.10
2018-09-29T03:00:25.122Z,3.50
2018-09-29T03:02:53.714Z,3.80
2018-09-29T03:05:22.316Z,3.43
2018-09-29T03:07:51.109Z,2.97
2018-09-29T03:10:19.866Z,2.93
2018-09-29T03:12:48.424Z,2.67
2018-09-29T03:15:17.193Z,3.23
2018-09-29T03:17:45.779Z,3.13
2018-09-29T03:20:14.362Z,3.40
2018-09-29T03:22:42.912Z,2.90
2018-09-29T03:25:11.577Z,2.90
2018-09-29T03:27:40.222Z,3.83
2018-09-29T03:30:08.837Z,3.13
2018-09-29T03:32:37.376Z,2.90
2018-09-29T03:35:06.499Z,3.03
2018-09-29T03:37:35.733Z,3.00
2018-09-29T03:40:05.129Z,3.10
2018-09-29T03:42:33.706Z,3.40
2018-09-29T03:45:02.602Z,3.23
2018-09-29T03:47:32.022Z,3.80
2018-09-29T03:50:00.634Z,3.23
2018-09-29T03:52:29.180Z,3.10
2018-09-29T03:54:57.793Z,3.20
2018-09-29T03:57:26.378Z,3.50
2018-09-29T03:59:54.986Z,3.63
2018-09-29T04:02:23.650Z,2.87
2018-09-29T04:04:52.680Z,5.10
2018-09-29T04:07:21.262Z,3.50
2018-09-29T04:09:50.866Z,3.23
2018-09-29T04:12:19.446Z,2.73
2018-09-29T04:14:48.339Z,3.00
2018-09-29T04:17:16.887Z,3.23
2018-09-29T04:19:45.627Z,4.43
2018-09-29T04:22:14.210Z,5.37
2018-09-29T04:24:42.945Z,4.10
2018-09-29T04:27:11.914Z,2.97
2018-09-29T04:29:40.700Z,3.00
2018-09-29T04:32:09.298Z,3.30
2018-09-29T04:34:37.883Z,3.30
2018-09-29T04:37:06.877Z,3.50
2018-09-29T04:39:35.508Z,4.80
2018-09-29T04:42:04.368Z,4.47
2018-09-29T04:44:33.232Z,3.80
2018-09-29T04:47:01.909Z,3.63
2018-09-29T04:49:30.530Z,3.40
2018-09-29T04:51:59.094Z,3.77
2018-09-29T04:54:27.733Z,3.30
2018-09-29T04:56:56.314Z,3.87
2018-09-29T04:59:25.230Z,3.50
2018-09-29T05:01:54.485Z,3.00
2018-09-29T05:04:23.901Z,3.07
2018-09-29T05:06:52.509Z,3.80
2018-09-29T05:09:21.268Z,3.53
2018-09-29T05:11:49.861Z,3.23
2018-09-29T05:14:18.977Z,2.77
2018-09-29T05:16:47.531Z,3.30
2018-09-29T05:19:16.166Z,3.00
2018-09-29T05:21:45.045Z,2.70
2018-09-29T05:24:13.753Z,3.70
2018-09-29T05:26:42.613Z,2.93
2018-09-29T05:29:11.166Z,3.33
2018-09-29T05:31:40.403Z,2.97
2018-09-29T05:34:08.950Z,3.43
2018-09-29T05:36:37.629Z,3.40
2018-09-29T05:39:07.854Z,3.40
2018-09-29T05:41:36.401Z,2.90
2018-09-29T05:44:05.094Z,3.10
2018-09-29T05:46:34.081Z,3.13
2018-09-29T05:49:03.138Z,2.90
2018-09-29T05:51:32.073Z,3.53
2018-09-29T05:54:00.825Z,2.90
2018-09-29T05:56:29.604Z,3.00
2018-09-29T05:58:58.203Z,2.70
2018-09-29T06:01:27.096Z,2.37
2018-09-29T06:03:56.504Z,2.87
2018-09-29T06:06:25.173Z,4.03
2018-09-29T06:08:53.820Z,2.57
2018-09-29T06:11:22.449Z,2.73
2018-09-29T06:13:51.050Z,2.53
2018-09-29T06:16:19.798Z,2.90
2018-09-29T06:18:49.034Z,2.47
2018-09-29T06:21:17.569Z,3.07
2018-09-29T06:23:46.292Z,2.57
2018-09-29T06:26:15.242Z,2.63
2018-09-29T06:28:43.800Z,2.47
2018-09-29T06:31:12.498Z,2.70
2018-09-29T06:33:41.590Z,2.80
2018-09-29T06:36:10.134Z,3.47
2018-09-29T06:38:39.310Z,3.10
2018-09-29T06:41:08.927Z,2.97
2018-09-29T06:43:37.647Z,2.97
2018-09-29T06:46:06.459Z,3.03
2018-09-29T06:48:35.166Z,2.83
2018-09-29T06:51:04.324Z,3.35
2018-09-29T06:53:32.882Z,3.35
2018-09-29T06:56:01.957Z,8.10
2018-09-29T06:58:32.280Z,3.58
2018-09-29T07:01:01.599Z,3.15
2018-09-29T07:03:30.226Z,2.80
2018-09-29T07:05:58.803Z,2.83
2018-09-29T07:08:27.689Z,3.00
2018-09-29T07:10:56.907Z,3.72
2018-09-29T07:13:26.030Z,2.40
2018-09-29T07:15:55.242Z,2.42
2018-09-29T07:18:24.514Z,3.70
2018-09-29T07:20:53.703Z,4.17
2018-09-29T07:23:23.380Z,3.12
2018-09-29T07:25:52.610Z,3.20
2018-09-29T07:28:21.414Z,3.15
2018-09-29T07:30:51.156Z,3.12
2018-09-29T07:33:19.910Z,3.72
2018-09-29T07:35:49.248Z,3.22
2018-09-29T07:38:18.654Z,3.80
2018-09-29T07:40:47.909Z,3.45
2018-09-29T07:43:17.070Z,2.70
2018-09-29T07:45:46.251Z,3.25
2018-09-29T07:48:15.450Z,4.33
2018-09-29T07:50:44.602Z,14.47
2018-09-29T07:53:13.730Z,3.83
2018-09-29T07:55:42.910Z,3.20
2018-09-29T07:58:12.086Z,2.80
2018-09-29T08:00:41.185Z,2.90
2018-09-29T08:03:10.368Z,2.77
2018-09-29T08:05:39.715Z,3.20
2018-09-29T08:08:08.768Z,2.60
2018-09-29T08:10:37.822Z,2.40
2018-09-29T08:13:06.388Z,2.42
2018-09-29T08:15:34.954Z,2.40
2018-09-29T08:18:03.551Z,2.52
2018-09-29T08:20:32.227Z,2.52
2018-09-29T08:23:00.977Z,2.50
2018-09-29T08:25:29.601Z,2.77
2018-09-29T08:27:58.166Z,2.50
2018-09-29T08:30:26.771Z,2.67
2018-09-29T08:32:55.322Z,2.70
2018-09-29T08:35:23.866Z,2.33
2018-09-29T08:37:52.470Z,2.40
2018-09-29T08:40:21.334Z,2.90
2018-09-29T08:42:50.089Z,2.33
2018-09-29T08:45:18.685Z,2.07
2018-09-29T08:47:47.331Z,1.80
2018-09-29T08:50:16.010Z,2.20
2018-09-29T08:52:44.768Z,1.93
2018-09-29T08:55:13.467Z,1.90
2018-09-29T08:57:42.039Z,1.60
2018-09-29T09:00:10.622Z,2.03
2018-09-29T09:02:39.215Z,1.70
2018-09-29T09:05:07.788Z,2.20
2018-09-29T09:07:36.387Z,2.00
2018-09-29T09:10:05.290Z,1.50
2018-09-29T09:12:33.966Z,1.73
2018-09-29T09:15:02.610Z,2.10
2018-09-29T09:17:31.205Z,1.87
2018-09-29T09:19:59.879Z,1.70
2018-09-29T09:22:28.462Z,1.63
2018-09-29T09:24:57.159Z,2.03
2018-09-29T09:27:25.722Z,1.60
2018-09-29T09:29:54.436Z,1.43
2018-09-29T09:32:23.353Z,2.93
2018-09-29T09:34:52.032Z,7.20
2018-09-29T09:37:20.777Z,2.20
2018-09-29T09:39:49.332Z,8.87
2018-09-29T09:42:17.896Z,4.57
2018-09-29T09:44:46.499Z,1.93
2018-09-29T09:47:15.261Z,1.97
2018-09-29T09:49:44.110Z,2.00
2018-09-29T09:52:12.859Z,6.07
2018-09-29T09:54:41.513Z,5.00
2018-09-29T09:57:10.100Z,2.50
2018-09-29T09:59:38.666Z,1.30
2018-09-29T10:02:12.677Z,4.47
2018-09-29T10:04:47.709Z,2.90
2018-09-29T10:07:16.309Z,2.40
2018-09-29T10:09:46.093Z,2.03
2018-09-29T10:12:14.773Z,2.10
2018-09-29T10:14:45.735Z,1.30
2018-09-29T10:17:14.423Z,1.90
2018-09-29T10:19:43.141Z,2.83
2018-09-29T10:22:11.771Z,1.30
2018-09-29T10:24:40.303Z,1.60
2018-09-29T10:27:08.894Z,1.70
2018-09-29T10:29:37.488Z,1.20
2018-09-29T10:32:06.129Z,2.87
2018-09-29T10:34:34.817Z,4.33
2018-09-29T10:37:03.377Z,1.57
2018-09-29T10:39:31.949Z,4.00
2018-09-29T10:42:00.568Z,1.40
2018-09-29T10:44:29.163Z,1.63
2018-09-29T10:46:57.697Z,1.60
2018-09-29T10:51:53.492Z,1.43
2018-09-29T10:54:22.275Z,2.33
2018-09-29T10:56:50.876Z,2.17
2018-09-29T10:59:20.082Z,1.80
2018-09-29T11:01:48.909Z,2.30
2018-09-29T11:04:17.475Z,1.90
2018-09-29T11:06:46.075Z,1.73
2018-09-29T11:09:14.743Z,1.47
2018-09-29T11:11:43.330Z,1.50
2018-09-29T11:14:11.956Z,1.17
2018-09-29T11:16:40.701Z,1.57
2018-09-29T11:19:09.298Z,2.20
2018-09-29T11:21:37.845Z,1.40
2018-09-29T11:24:06.527Z,1.10
2018-09-29T11:26:35.394Z,1.20
2018-09-29T11:29:03.956Z,1.37
2018-09-29T11:31:32.481Z,1.20
2018-09-29T11:34:01.041Z,1.80
2018-09-29T11:36:29.669Z,1.20
2018-09-29T11:38:58.250Z,1.10
2018-09-29T11:41:26.929Z,0.70
2018-09-29T11:43:55.642Z,1.33
2018-09-29T11:46:24.325Z,1.00
2018-09-29T11:48:52.927Z,1.10
2018-09-29T11:51:21.509Z,1.20
2018-09-29T11:53:50.030Z,0.97
2018-09-29T11:56:18.671Z,1.17
2018-09-29T11:58:47.490Z,1.10
2018-09-29T12:01:16.170Z,1.20
2018-09-29T12:03:45.028Z,1.07
2018-09-29T12:06:13.616Z,1.00
2018-09-29T12:08:42.396Z,1.20
2018-09-29T12:11:10.989Z,1.23
2018-09-29T12:13:39.533Z,1.40
2018-09-29T12:16:08.393Z,1.00
2018-09-29T12:18:37.166Z,1.20
2018-09-29T12:21:05.808Z,2.03
2018-09-29T12:23:34.393Z,1.20
2018-09-29T12:26:02.936Z,1.40
2018-09-29T12:28:31.533Z,1.23
2018-09-29T12:31:00.165Z,1.20
2018-09-29T12:33:28.805Z,1.30
2018-09-29T12:35:57.432Z,0.80
2018-09-29T12:38:26.025Z,1.10
2018-09-29T12:40:54.639Z,42.60
2018-09-29T12:43:23.201Z,23.57
2018-09-29T12:45:51.759Z,4.50
2018-09-29T12:48:20.376Z,6.70
2018-09-29T12:50:49.032Z,2.10
2018-09-29T12:53:17.753Z,1.47
2018-09-29T12:55:46.424Z,2.40
2018-09-29T12:58:14.975Z,1.40
2018-09-29T13:00:43.648Z,2.10
2018-09-29T13:03:12.213Z,2.03
2018-09-29T13:05:40.831Z,1.63
2018-09-29T13:08:09.490Z,1.57
2018-09-29T13:10:38.054Z,1.23
2018-09-29T13:13:07.142Z,19.67
2018-09-29T13:15:35.714Z,6.20
2018-09-29T13:18:04.339Z,1.60
2018-09-29T13:20:32.878Z,1.80
2018-09-29T13:23:01.521Z,1.80
2018-09-29T13:25:30.337Z,1.60
2018-09-29T13:27:59.010Z,2.40
2018-09-29T13:30:27.625Z,1.80
2018-09-29T13:32:56.162Z,2.30
2018-09-29T13:35:25.030Z,1.80
2018-09-29T13:37:53.630Z,1.80
2018-09-29T13:40:22.228Z,1.93
2018-09-29T13:42:50.981Z,1.70
2018-09-29T13:45:19.853Z,2.07
2018-09-29T13:47:49.077Z,2.20
2018-09-29T13:50:17.845Z,2.40
2018-09-29T13:52:46.404Z,2.00
2018-09-29T13:55:15.162Z,2.03
2018-09-29T13:57:43.726Z,1.70
2018-09-29T14:00:12.357Z,3.07
2018-09-29T14:02:41.108Z,24.57
2018-09-29T14:05:10.409Z,6.23
2018-09-29T14:07:39.693Z,5.20
2018-09-29T14:10:08.318Z,168.53
2018-09-29T14:12:37.094Z,2.57
2018-09-29T14:15:06.235Z,21.77
2018-09-29T14:17:35.382Z,4.87
2018-09-29T14:20:04.080Z,2.90
2018-09-29T14:22:32.883Z,7.23
2018-09-29T14:25:02.535Z,7.90
2018-09-29T14:27:31.297Z,5.57
2018-09-29T14:30:00.076Z,5.07
2018-09-29T14:32:28.974Z,4.57
2018-09-29T14:34:57.757Z,1.60
2018-09-29T14:37:26.373Z,1.90
2018-09-29T14:39:55.064Z,21.80
2018-09-29T14:42:23.949Z,4.73
2018-09-29T14:44:53.047Z,5.33
2018-09-29T14:47:22.847Z,1.50
2018-09-29T14:49:51.594Z,1.70
2018-09-29T14:52:20.443Z,1.90
2018-09-29T14:54:49.327Z,3.70
2018-09-29T14:57:17.977Z,7.27
2018-09-29T14:59:47.784Z,42.60
2018-09-29T15:02:16.334Z,2.40
2018-09-29T15:04:44.995Z,2.63
2018-09-29T15:07:13.606Z,17.67
2018-09-29T15:09:42.246Z,11.33
2018-09-29T15:12:10.830Z,7.07
2018-09-29T15:14:39.372Z,2.97
2018-09-29T15:17:07.956Z,14.30
2018-09-29T15:19:36.526Z,55.27
2018-09-29T15:22:05.130Z,9.70
2018-09-29T15:24:33.817Z,15.90
2018-09-29T15:27:04.391Z,16.83
2018-09-29T15:29:33.206Z,6.67
2018-09-29T15:32:02.029Z,4.20
2018-09-29T15:34:30.738Z,3.53
2018-09-29T15:36:59.361Z,2.10
2018-09-29T15:39:28.108Z,2.77
2018-09-29T15:41:56.667Z,18.27
2018-09-29T15:44:25.242Z,262.20
2018-09-29T15:46:54.021Z,59.30
2018-09-29T15:49:22.611Z,10.47
2018-09-29T15:51:51.181Z,5.37
2018-09-29T15:54:19.755Z,71.47
2018-09-29T15:56:48.329Z,9.97
2018-09-29T15:59:16.969Z,47.93
2018-09-29T16:01:45.525Z,44.57
2018-09-29T16:04:14.234Z,4.13
2018-09-29T16:06:42.863Z,5.87
2018-09-29T16:09:11.502Z,5.03
2018-09-29T16:11:41.212Z,8.23
2018-09-29T16:14:10.235Z,11.17
2018-09-29T16:16:38.928Z,8.83
2018-09-29T16:19:07.675Z,105.63
2018-09-29T16:21:37.400Z,82.63
2018-09-29T16:24:06.201Z,117.80
2018-09-29T16:26:35.581Z,46.40
2018-09-29T16:29:05.499Z,10.03
2018-09-29T16:31:34.329Z,49.73
2018-09-29T16:34:03.022Z,21.03
2018-09-29T16:36:31.640Z,19.50
2018-09-29T16:39:00.202Z,19.20
2018-09-29T16:41:28.787Z,22.70
2018-09-29T16:43:57.940Z,23.73
2018-09-29T16:46:26.521Z,45.83
2018-09-29T16:48:55.373Z,52.40
2018-09-29T16:51:25.570Z,40.67
2018-09-29T16:54:01.992Z,43.60
2018-09-29T16:56:30.610Z,37.80
2018-09-29T16:58:59.166Z,55.77
2018-09-29T17:01:27.983Z,89.43
2018-09-29T17:03:56.643Z,87.50
2018-09-29T17:06:25.497Z,64.17
2018-09-29T17:08:54.821Z,66.57
2018-09-29T17:11:23.374Z,59.73
2018-09-29T17:13:51.913Z,60.40
2018-09-29T17:16:20.464Z,57.80
2018-09-29T17:18:49.060Z,48.03
2018-09-29T17:21:17.661Z,46.07
2018-09-29T17:23:46.670Z,35.07
2018-09-29T17:26:15.430Z,30.00
2018-09-29T17:28:43.976Z,44.53
2018-09-29T17:31:12.552Z,45.77
2018-09-29T17:33:41.171Z,34.23
2018-09-29T17:36:09.712Z,27.00
2018-09-29T17:38:38.263Z,74.33
2018-09-29T17:41:07.044Z,91.50
2018-09-29T17:43:35.830Z,298.00
2018-09-29T17:46:04.392Z,435.53
2018-09-29T17:48:33.344Z,311.27
2018-09-29T17:51:01.894Z,315.07
2018-09-29T17:56:14.117Z,308.57
2018-09-29T17:58:44.887Z,262.73
2018-09-29T18:03:57.808Z,46.07
2018-09-29T18:06:26.669Z,31.50
2018-09-29T18:08:55.321Z,26.23
2018-09-29T18:11:24.156Z,40.10
2018-09-29T18:13:52.853Z,37.57
2018-09-29T18:16:21.539Z,27.13
2018-09-29T18:18:50.140Z,30.17
2018-09-29T18:21:20.369Z,36.90
2018-09-29T18:23:49.229Z,31.20
2018-09-29T18:26:17.935Z,28.63
2018-09-29T18:28:46.685Z,31.63
2018-09-29T18:31:15.353Z,29.97
2018-09-29T18:33:44.117Z,35.13
2018-09-29T18:36:12.913Z,323.23
2018-09-29T18:38:41.655Z,411.03
2018-09-29T18:41:10.352Z,531.23
2018-09-29T18:43:49.211Z,497.60
2018-09-29T18:46:22.192Z,429.70
2018-09-29T18:48:52.247Z,287.30
2018-09-29T18:51:21.010Z,187.87
2018-09-29T18:53:49.682Z,55.73
2018-09-29T18:56:18.242Z,28.50
2018-09-29T18:58:46.951Z,27.73
2018-09-29T19:01:15.646Z,34.50
2018-09-29T19:03:44.202Z,91.00
2018-09-29T19:06:13.307Z,39.87
2018-09-29T19:08:41.877Z,23.83
2018-09-29T19:11:10.647Z,99.83
2018-09-29T19:13:39.464Z,52.47
2018-09-29T19:16:08.162Z,54.37
2018-09-29T19:18:36.723Z,40.70
2018-09-29T19:21:05.313Z,45.57
2018-09-29T19:23:34.578Z,47.23
2018-09-29T19:26:03.163Z,86.33
2018-09-29T19:28:31.709Z,108.27
2018-09-29T19:31:00.440Z,84.17
2018-09-29T19:33:29.161Z,91.10
2018-09-29T19:35:57.735Z,86.67
2018-09-29T19:38:26.290Z,58.77
2018-09-29T19:40:54.858Z,57.33
2018-09-29T19:43:23.465Z,38.23
2018-09-29T19:45:52.095Z,42.17
2018-09-29T19:48:21.042Z,47.13
2018-09-29T19:50:49.776Z,37.47
2018-09-29T19:53:18.758Z,33.77
2018-09-29T19:55:47.351Z,31.30
2018-09-29T19:58:15.926Z,28.60
2018-09-29T20:00:44.466Z,22.70
2018-09-29T20:03:13.021Z,23.53
2018-09-29T20:05:41.803Z,24.00
2018-09-29T20:08:10.426Z,23.83
2018-09-29T20:10:39.085Z,27.07
2018-09-29T20:13:07.657Z,52.40
2018-09-29T20:15:36.208Z,71.03
2018-09-29T20:18:04.752Z,75.60
2018-09-29T20:20:33.337Z,72.63
2018-09-29T20:23:02.128Z,64.20
2018-09-29T20:25:30.744Z,53.27
2018-09-29T20:27:59.409Z,46.03
2018-09-29T20:30:28.242Z,44.53
2018-09-29T20:32:57.030Z,41.53
2018-09-29T20:35:25.637Z,45.83
2018-09-29T20:37:54.198Z,57.53
2018-09-29T20:40:22.950Z,54.70
2018-09-29T20:42:52.091Z,64.97
2018-09-29T20:45:21.278Z,58.70
2018-09-29T20:47:49.837Z,52.40
2018-09-29T20:50:18.435Z,48.67
2018-09-29T20:52:46.955Z,40.77
2018-09-29T20:55:15.554Z,54.87
2018-09-29T20:57:44.166Z,73.23
2018-09-29T21:00:12.828Z,103.27
2018-09-29T21:02:41.595Z,107.67
2018-09-29T21:05:10.174Z,90.70
2018-09-29T21:07:38.819Z,61.90
2018-09-29T21:10:07.417Z,58.43
2018-09-29T21:12:35.983Z,51.97
2018-09-29T21:15:04.591Z,85.23
2018-09-29T21:17:33.289Z,62.07
2018-09-29T21:20:01.933Z,81.07
2018-09-29T21:22:30.567Z,104.57
2018-09-29T21:24:59.121Z,97.43
2018-09-29T21:27:27.666Z,96.33
2018-09-29T21:29:56.242Z,83.17
2018-09-29T21:32:24.870Z,73.10
2018-09-29T21:34:53.686Z,52.43
2018-09-29T21:37:22.936Z,68.57
2018-09-29T21:39:51.517Z,65.30
2018-09-29T21:42:20.114Z,54.90
2018-09-29T21:44:48.809Z,62.17
2018-09-29T21:47:17.584Z,62.17
2018-09-29T21:49:46.244Z,65.53
2018-09-29T21:52:14.994Z,59.90
2018-09-29T21:54:43.914Z,50.37
2018-09-29T21:57:14.678Z,36.80
2018-09-29T21:59:43.478Z,40.40
2018-09-29T22:02:12.042Z,46.33
2018-09-29T22:04:40.728Z,44.93
2018-09-29T22:07:09.402Z,63.10
2018-09-29T22:09:37.984Z,55.83
2018-09-29T22:12:06.617Z,44.80
2018-09-29T22:14:35.301Z,26.07
2018-09-29T22:17:03.939Z,24.97
2018-09-29T22:19:32.485Z,22.00
2018-09-29T22:22:01.055Z,21.93
2018-09-29T22:24:29.641Z,26.00
2018-09-29T22:26:58.223Z,27.83
2018-09-29T22:29:26.761Z,27.23
2018-09-29T22:31:55.477Z,26.93
2018-09-29T22:34:25.998Z,26.90
2018-09-29T22:36:54.765Z,26.93
2018-09-29T22:39:23.460Z,27.40
2018-09-29T22:41:52.003Z,28.97
2018-09-29T22:44:20.558Z,26.77
2018-09-29T22:46:49.162Z,26.60
2018-09-29T22:49:17.740Z,28.47
2018-09-29T22:51:46.489Z,24.23
2018-09-29T22:54:15.111Z,22.03
2018-09-29T22:56:43.685Z,22.97
2018-09-29T22:59:12.237Z,25.40
2018-09-29T23:01:40.857Z,28.03
2018-09-29T23:04:09.413Z,27.10
2018-09-29T23:06:38.325Z,41.73
2018-09-29T23:09:09.443Z,33.73
2018-09-29T23:11:38.002Z,38.83
2018-09-29T23:14:06.718Z,34.67
2018-09-29T23:16:35.316Z,32.53
2018-09-29T23:19:03.931Z,37.37
2018-09-29T23:21:32.670Z,41.00
2018-09-29T23:24:01.275Z,36.07
2018-09-29T23:26:29.887Z,32.00
2018-09-29T23:28:58.454Z,28.07
2018-09-29T23:31:27.162Z,34.83
2018-09-29T23:33:55.764Z,33.63
2018-09-29T23:36:24.317Z,31.50
2018-09-29T23:38:52.974Z,24.73
2018-09-29T23:41:21.546Z,24.93
2018-09-29T23:43:50.099Z,27.37
2018-09-29T23:46:18.827Z,29.93
2018-09-29T23:48:47.570Z,30.57
2018-09-29T23:51:22.791Z,32.17
2018-09-29T23:53:51.355Z,32.93
2018-09-29T23:56:19.905Z,32.83
2018-09-29T23:58:48.761Z,32.77
